Terminal Aerodrome Forecast
Issued by NWS

Home | Current Version | Previous Version | Text Only | Print | Product List | Glossary On
Versions: 1 2 3 4 5 6 7 8 9 10 11 12 13 14 15 16 17 18 19 20 21 22 23 24 25 26 27 28
000
FTUS43 KDMX 211736
TAFFOD
TAF
KFOD 211736Z 2118/2218 19005KT 5SM BR OVC003
     FM212000 21006KT P6SM OVC005
     FM220000 23004KT 6SM BR BKN030
     FM220200 VRB03KT 6SM BR BKN060
     FM220400 VRB03KT 4SM BR SCT120
     FM221300 32005KT 3SM BR BKN003
     FM221400 32006KT 6SM BR BKN005=

USA.gov is the U.S. government's official web portal to all federal, state and local government web resources and services.